Latest Weather Observations for Mangalore

IDV60801

Issued at 7:32 pm EDT Friday 20 October 2017 (issued every 30 minutes, with the page automatically refreshed every 10 minutes)

About weather observations | Map of weather stations | Latest weather observations for VIC | Other Formats
Station Details ID: 088109 Name: MANGALORE AIRPORT Lat: -36.89 Lon: 145.19 Height: 140.8 m
Data from the previous 72 hours. | See also: Recent months at Mangalore
Date/Time
EDT
Temp
°C
App
Temp
°C
Dew
Point
°C
Rel
Hum
%
Delta-T
°C
Wind Press
QNH
hPa
Press
MSL
hPa
Rain since
9am
mm
Dir  Spd
km/h
Gust
km/h
Spd
kts
Gust
kts
20/07:30pm 12.9 7.1 2.2 48 4.7 S 22 32 12 17 1025.4 1025.4 0.0
20/07:00pm 14.0 6.9 1.3 42 5.5 S 28 46 15 25 1025.4 1025.4 0.0
20/06:58pm 14.1 7.1 1.7 43 5.4 S 28 46 15 25 1025.3 1025.3 0.0
20/06:30pm 14.8 7.4 2.0 42 5.7 S 30 41 16 22 1025.1 1025.1 0.0
20/06:00pm 15.2 8.0 3.0 44 5.5 S 30 43 16 23 1024.8 1024.8 0.0
20/05:30pm 16.5 8.9 2.9 40 6.2 S 32 44 17 24 1024.6 1024.6 0.0
20/05:00pm 16.6 9.3 2.2 38 6.5 SSE 30 39 16 21 1024.5 1024.5 0.0
20/04:30pm 16.7 8.9 3.1 40 6.3 S 33 44 18 24 1024.4 1024.4 0.0
20/04:00pm 17.0 9.0 3.7 41 6.2 S 35 48 19 26 1024.3 1024.3 0.0
20/03:30pm 17.1 9.1 3.8 41 6.2 S 35 48 19 26 1024.4 1024.4 0.0
20/03:09pm 17.3 9.8 3.2 39 6.5 S 32 50 17 27 1024.3 1024.3 0.0
20/03:00pm 17.7 10.1 3.9 40 6.5 SSE 33 46 18 25 1024.5 1024.5 0.0
20/02:44pm 17.5 9.8 3.4 39 6.6 S 33 54 18 29 1024.6 1024.6 0.0
20/02:30pm 17.6 10.2 3.9 40 6.5 S 32 46 17 25 1024.7 1024.7 0.0
20/02:00pm 17.4 9.9 4.4 42 6.2 S 33 48 18 26 1024.8 1024.8 0.0
20/01:46pm 17.3 9.8 3.6 40 6.4 S 32 50 17 27 1024.9 1024.9 0.0
20/01:30pm 17.3 9.6 3.6 40 6.4 S 33 46 18 25 1024.9 1024.9 0.0
20/01:00pm 17.8 10.8 4.0 40 6.5 S 30 44 16 24 1025.0 1025.0 0.0
20/12:39pm 17.0 9.4 3.7 41 6.2 SSW 33 52 18 28 1025.2 1025.2 0.0
20/12:30pm 16.7 10.2 4.7 45 5.7 SSW 28 39 15 21 1025.1 1025.1 0.0
20/12:00pm 15.7 8.3 1.8 39 6.1 S 30 39 16 21 1025.5 1025.5 0.0
20/11:30am 15.7 7.8 2.5 41 6.0 S 33 44 18 24 1025.6 1025.6 0.0
20/11:00am 15.0 8.3 3.5 46 5.2 SSW 28 41 15 22 1025.8 1025.8 0.0
20/10:30am 13.9 7.2 3.9 51 4.6 S 28 41 15 22 1025.9 1025.9 0.0
20/10:00am 13.3 6.9 5.2 58 3.8 SSW 28 39 15 21 1025.5 1025.5 0.0
20/09:30am 13.5 6.9 4.4 54 4.2 SSW 28 41 15 22 1025.3 1025.3 0.0
20/09:00am 13.0 6.8 4.4 56 3.9 SSW 26 39 14 21 1025.2 1025.2 1.8
20/08:30am 12.4 7.0 6.2 66 3.0 SSW 24 33 13 18 1025.1 1025.1 1.8
20/08:00am 11.8 7.2 6.7 71 2.4 SSW 20 32 11 17 1024.7 1024.7 1.8
20/07:30am 10.8 6.8 6.7 76 1.9 SSW 17 24 9 13 1024.4 1024.4 1.8
20/07:00am 10.1 6.0 6.4 78 1.7 SSW 17 22 9 12 1024.2 1024.2 1.8
20/06:30am 9.8 6.0 5.8 76 1.8 SSW 15 20 8 11 1023.9 1023.9 1.8
20/06:00am 10.4 6.0 6.4 76 1.9 SSW 19 28 10 15 1023.4 1023.4 1.8
20/05:30am 10.6 5.2 6.4 75 2.0 SSW 24 35 13 19 1023.1 1023.1 1.8
20/05:00am 9.0 5.3 6.1 82 1.3 SW 15 19 8 10 1022.7 1022.7 1.8
20/04:30am 10.0 6.7 6.2 77 1.8 SSW 13 19 7 10 1022.6 1022.6 1.8
20/04:00am 9.3 6.6 5.7 78 1.6 SSW 9 15 5 8 1022.7 1022.7 1.8
20/03:30am 10.9 6.3 5.7 70 2.4 SSW 19 26 10 14 1022.4 1022.4 1.8
20/03:00am 10.3 6.3 5.1 70 2.4 SSW 15 22 8 12 1022.8 1022.8 1.8
20/02:30am 10.7 7.1 4.8 67 2.7 SSW 13 20 7 11 1022.8 1022.8 1.8
20/02:00am 11.4 7.0 4.6 63 3.1 SSW 17 24 9 13 1022.8 1022.8 1.8
20/01:30am 11.9 6.4 4.2 59 3.5 SSW 22 33 12 18 1022.8 1022.8 1.8
20/01:00am 12.1 7.0 3.9 57 3.7 SSW 20 30 11 16 1022.8 1022.8 1.8
20/12:30am 12.8 7.1 4.8 58 3.7 SSW 24 39 13 21 1022.7 1022.7 1.8
20/12:00am 13.5 8.7 7.3 66 3.0 SSW 22 35 12 19 1022.6 1022.6 1.8
 
Date/Time
EDT
Temp
°C
App
Temp
°C
Dew
Point
°C
Rel
Hum
%
Delta-T
°C
Wind Press
QNH
hPa
Press
MSL
hPa
Rain since
9am
mm
Dir  Spd
km/h
Gust
km/h
Spd
kts
Gust
kts
19/11:30pm 14.5 9.1 8.2 66 3.2 SSW 26 37 14 20 1022.0 1021.9 1.8
19/11:00pm 15.1 11.0 8.8 66 3.2 SSW 20 28 11 15 1022.0 1021.9 1.8
19/10:30pm 16.1 12.2 10.8 71 2.8 S 22 32 12 17 1021.9 1021.8 1.8
19/10:00pm 16.7 13.7 10.8 68 3.2 SSW 17 28 9 15 1021.7 1021.6 1.8
19/09:30pm 17.1 14.1 12.0 72 2.8 S 19 30 10 16 1021.2 1021.1 1.8
19/09:00pm 17.1 13.6 12.2 73 2.7 SSW 22 32 12 17 1020.5 1020.4 1.8
19/08:30pm 17.3 13.7 13.0 76 2.4 SSW 24 33 13 18 1020.3 1020.2 1.8
19/08:00pm 18.6 15.8 14.3 76 2.5 SSW 22 32 12 17 1019.1 1019.0 1.8
19/07:30pm 19.5 16.5 14.7 74 2.8 SSW 24 37 13 20 1018.0 1018.0 1.8
19/07:14pm 21.6 19.5 14.7 65 4.1 SW 19 44 10 24 1017.4 1017.4 1.8
19/07:00pm 23.1 21.9 14.1 57 5.3 SW 13 19 7 10 1017.2 1017.2 1.8
19/06:30pm 23.9 22.6 13.7 53 6.0 WSW 13 20 7 11 1016.4 1016.4 1.8
19/06:00pm 24.6 22.3 14.1 52 6.2 WSW 19 28 10 15 1016.1 1016.1 1.8
19/05:30pm 26.4 21.9 13.9 46 7.5 WSW 30 39 16 21 1016.1 1016.1 1.8
19/05:00pm 26.9 23.2 15.0 48 7.2 WSW 28 41 15 22 1015.4 1015.3 1.8
19/04:30pm 27.3 22.5 14.0 44 8.0 WSW 32 44 17 24 1015.1 1015.0 1.8
19/04:25pm 27.7 23.5 13.6 42 8.4 WSW 28 39 15 21 1015.1 1015.0 1.8
19/04:00pm 25.5 25.9 18.9 67 4.2 ENE 15 19 8 10 1015.3 1015.2 1.8
19/03:30pm 24.7 24.9 19.3 72 3.5 NE 17 22 9 12 1015.5 1015.4 1.8
19/03:00pm 23.8 24.4 19.5 77 2.8 N 15 24 8 13 1016.0 1015.9 1.8
19/02:30pm 25.1 25.1 18.1 65 4.4 NNE 15 20 8 11 1016.0 1015.9 1.8
19/02:00pm 24.8 25.4 19.4 72 3.5 NNE 15 22 8 12 1016.6 1016.6 1.6
19/01:30pm 23.4 24.4 20.2 82 2.1 NNE 15 19 8 10 1017.0 1017.0 1.6
19/01:00pm 21.9 23.5 19.1 84 1.8 N 9 13 5 7 1017.1 1017.1 1.6
19/12:51pm 22.0 23.2 18.2 79 2.4 N 9 15 5 8 1017.5 1017.5 1.4
19/12:31pm 22.5 22.0 16.8 70 3.5 N 15 20 8 11 1017.8 1017.8 0.8
19/12:30pm 22.9 22.5 17.1 70 3.6 N 15 20 8 11 1017.7 1017.7 0.2
19/12:00pm 24.0 22.2 16.0 61 4.9 NNE 20 28 11 15 1017.4 1017.4 0.2
19/11:30am 23.1 20.5 15.9 64 4.4 NNE 24 35 13 19 1017.6 1017.6 0.2
19/11:00am 23.6 21.2 16.4 64 4.4 N 24 32 13 17 1017.9 1017.9 0.2
19/10:30am 21.6 19.1 16.1 71 3.3 NNE 24 32 13 17 1017.9 1017.9 0.2
19/10:00am 20.2 18.8 15.6 75 2.7 NNE 17 24 9 13 1018.3 1018.3 0.2
19/09:30am 18.4 16.8 14.9 80 2.0 NE 17 26 9 14 1018.3 1018.3 0.2
19/09:00am 19.1 18.4 15.4 79 2.2 NNE 13 19 7 10 1017.8 1017.8 0.2
19/08:30am 19.8 17.2 13.3 66 3.7 NNE 19 26 10 14 1017.7 1017.7 0.0
19/08:00am 20.6 18.3 11.8 57 4.9 NNE 15 20 8 11 1017.6 1017.6 0.0
19/07:30am 20.5 17.1 11.4 56 5.1 NNE 20 28 11 15 1017.3 1017.3 0.0
19/07:00am 21.2 17.6 10.7 51 5.8 NNE 20 26 11 14 1016.7 1016.7 0.0
19/06:30am 21.0 17.7 10.8 52 5.6 NNE 19 24 10 13 1016.3 1016.3 0.0
19/06:00am 20.9 17.3 10.4 51 5.7 NNE 20 28 11 15 1016.0 1015.9 0.0
19/05:30am 21.4 17.0 10.3 49 6.1 NNE 24 33 13 18 1015.9 1015.8 0.0
19/05:00am 21.6 17.0 9.8 47 6.4 NE 24 33 13 18 1015.8 1015.7 0.0
19/04:30am 21.7 17.9 9.9 47 6.4 NE 20 28 11 15 1016.0 1015.9 0.0
19/04:00am 21.6 17.8 9.8 47 6.4 NE 20 28 11 15 1016.3 1016.3 0.0
19/03:30am 21.8 18.1 10.0 47 6.4 NE 20 26 11 14 1016.7 1016.7 0.0
19/03:00am 22.1 18.3 9.9 46 6.6 NE 20 26 11 14 1017.1 1017.1 0.0
19/02:30am 22.4 18.7 10.2 46 6.7 NE 20 30 11 16 1017.4 1017.4 0.0
19/02:00am 22.2 18.7 11.0 49 6.2 NE 20 28 11 15 1017.6 1017.6 0.0
19/01:30am 22.2 18.9 11.0 49 6.2 NE 19 26 10 14 1018.0 1018.0 0.0
19/01:00am 22.2 18.7 11.0 49 6.2 NE 20 28 11 15 1018.4 1018.4 0.0
19/12:30am 22.6 18.8 11.0 48 6.5 NE 22 28 12 15 1018.5 1018.5 0.0
19/12:00am 22.4 18.9 10.9 48 6.4 NE 20 26 11 14 1018.6 1018.6 0.0
 
Date/Time
EDT
Temp
°C
App
Temp
°C
Dew
Point
°C
Rel
Hum
%
Delta-T
°C
Wind Press
QNH
hPa
Press
MSL
hPa
Rain since
9am
mm
Dir  Spd
km/h
Gust
km/h
Spd
kts
Gust
kts
18/11:30pm 22.1 18.6 10.9 49 6.2 NE 20 28 11 15 1019.0 1018.9 0.0
18/11:00pm 21.5 18.7 11.5 53 5.6 NE 17 24 9 13 1019.3 1019.2 0.0
18/10:30pm 20.6 17.8 11.5 56 5.1 NE 17 20 9 11 1019.4 1019.3 0.0
18/10:00pm 21.2 18.5 11.8 55 5.3 NE 17 22 9 12 1019.6 1019.5 0.0
18/09:30pm 21.2 18.9 11.8 55 5.3 NE 15 19 8 10 1019.6 1019.5 0.0
18/09:00pm 21.5 19.3 12.1 55 5.3 NE 15 19 8 10 1019.4 1019.3 0.0
18/08:30pm 21.8 19.7 12.4 55 5.4 NE 15 19 8 10 1019.2 1019.1 0.0
18/08:00pm 21.9 19.9 11.6 52 5.8 ENE 13 15 7 8 1018.8 1018.7 0.0
18/07:30pm 24.6 21.8 11.2 43 7.6 NE 17 20 9 11 1018.5 1018.5 0.0
18/07:00pm 26.1 22.5 10.7 38 8.7 NE 20 28 11 15 1018.4 1018.4 0.0
18/06:30pm 27.3 23.7 10.5 35 9.5 NE 20 26 11 14 1018.3 1018.3 0.0
18/06:00pm 27.9 24.3 10.6 34 9.8 NE 20 28 11 15 1018.3 1018.3 0.0
18/05:30pm 28.3 24.8 10.9 34 10.0 NE 20 32 11 17 1018.3 1018.3 0.0
18/05:00pm 28.7 24.7 11.7 35 9.9 NNE 24 35 13 19 1018.5 1018.5 0.0
18/04:30pm 28.6 24.8 11.2 34 10.0 NE 22 32 12 17 1018.9 1018.8 0.0
18/04:00pm 28.5 24.6 12.0 36 9.6 NE 24 37 13 20 1019.2 1019.1 0.0
18/03:30pm 28.7 25.2 12.2 36 9.7 NNE 22 32 12 17 1019.6 1019.5 0.0
18/03:00pm 28.3 24.7 11.8 36 9.6 NE 22 32 12 17 1020.1 1020.0 0.0
18/02:30pm 27.8 24.1 11.4 36 9.4 NNE 22 35 12 19 1020.7 1020.6 0.0
18/02:00pm 27.0 22.9 11.5 38 8.9 NNE 24 37 13 20 1021.1 1021.0 0.0
18/01:30pm 27.0 23.5 12.3 40 8.6 NE 22 33 12 18 1021.7 1021.6 0.0
18/01:00pm 26.2 22.6 11.9 41 8.2 NNE 22 41 12 22 1022.4 1022.4 0.0
18/12:30pm 26.0 21.9 11.4 40 8.3 NNE 24 35 13 19 1022.6 1022.6 0.0
18/12:00pm 25.7 22.1 11.8 42 8.0 NNE 22 33 12 18 1022.9 1022.9 0.0
18/11:30am 25.1 20.4 12.0 44 7.5 NNE 28 37 15 20 1023.3 1023.3 0.0
18/11:00am 24.7 20.3 11.6 44 7.4 NNE 26 37 14 20 1023.7 1023.7 0.0
18/10:30am 23.3 17.8 10.4 44 7.1 NNE 30 37 16 20 1023.8 1023.8 0.0
18/10:00am 22.5 17.0 10.6 47 6.6 NE 30 37 16 20 1024.0 1024.0 0.0
18/09:30am 21.7 16.0 9.9 47 6.4 NNE 30 41 16 22 1024.0 1024.0 0.0
18/09:00am 20.8 14.6 9.4 48 6.1 NE 32 43 17 23 1024.0 1024.0 0.0
18/08:30am 20.1 15.4 9.4 50 5.7 NE 24 37 13 20 1023.9 1023.9 0.0
18/08:00am 18.5 14.8 10.1 58 4.5 NE 20 28 11 15 1023.7 1023.7 0.0
18/07:30am 13.7 11.8 10.5 81 1.7 ENE 11 15 6 8 1023.3 1023.3 0.0
18/07:29am 13.1 11.5 10.1 82 1.6 ENE 9 13 5 7 1023.4 1023.4 0.0
18/07:00am 7.9 7.1 6.4 90 0.7 CALM 0 0 0 0 1022.8 1022.8 0.0
18/06:30am 7.1 6.1 5.6 90 0.7 CALM 0 0 0 0 1022.4 1022.4 0.0
18/06:00am 7.5 6.6 6.0 90 0.7 CALM 0 0 0 0 1022.1 1022.1 0.0
18/05:30am 7.2 6.1 5.3 88 0.8 CALM 0 0 0 0 1021.8 1021.7 0.0
18/05:00am 7.7 6.8 6.0 89 0.8 CALM 0 0 0 0 1021.8 1021.7 0.0
18/04:30am 6.4 5.2 4.7 89 0.7 CALM 0 0 0 0 1021.7 1021.6 0.0
18/04:00am 7.3 6.3 5.4 88 0.8 CALM 0 0 0 0 1021.6 1021.5 0.0
18/03:30am 7.7 5.4 4.8 82 1.3 ENE 6 7 3 4 1021.5 1021.4 0.0
18/03:00am 8.9 6.5 6.9 87 0.9 ENE 9 11 5 6 1021.5 1021.4 0.0
18/02:30am 7.6 5.4 5.2 85 1.1 ENE 6 6 3 3 1021.6 1021.5 0.0
18/02:00am 9.1 7.4 6.0 81 1.4 ENE 4 7 2 4 1021.9 1021.8 0.0
18/01:30am 9.2 8.3 5.9 80 1.5 CALM 0 0 0 0 1022.2 1022.2 0.0
18/01:00am 10.0 9.1 6.2 77 1.8 CALM 0 0 0 0 1022.5 1022.5 0.0
18/12:30am 9.7 8.7 5.7 76 1.8 CALM 0 0 0 0 1022.7 1022.7 0.0
18/12:00am 10.8 8.9 6.6 75 2.0 ENE 6 7 3 4 1022.8 1022.8 0.0
 
Date/Time
EDT
Temp
°C
App
Temp
°C
Dew
Point
°C
Rel
Hum
%
Delta-T
°C
Wind Press
QNH
hPa
Press
MSL
hPa
Rain since
9am
mm
Dir  Spd
km/h
Gust
km/h
Spd
kts
Gust
kts
17/11:30pm 10.6 8.5 6.0 73 2.1 ENE 6 7 3 4 1022.7 1022.7 0.0
17/11:00pm 11.6 9.6 7.1 74 2.2 ENE 7 9 4 5 1022.8 1022.8 0.0
17/10:30pm 12.2 11.6 7.3 72 2.4 CALM 0 0 0 0 1022.6 1022.6 0.0
17/10:00pm 12.0 10.6 7.1 72 2.4 ENE 4 9 2 5 1022.4 1022.4 0.0
17/09:30pm 14.2 12.5 7.7 65 3.2 ENE 6 7 3 4 1022.3 1022.3 0.0
17/09:00pm 15.1 13.2 7.4 60 3.8 ENE 7 7 4 4 1022.1 1022.1 0.0
17/08:30pm 15.2 12.9 7.3 59 3.9 ENE 9 9 5 5 1021.9 1021.8 0.0
17/08:00pm 20.2 17.4 6.9 42 6.8 ENE 11 13 6 7 1021.7 1021.6 0.0

Other Formats:

Comma delimited format used in spreadsheet applications
http://www.bom.gov.au/fwo/IDV60801/IDV60801.94874.axf

JavaScript Object Notation format (JSON) in row-major order
http://www.bom.gov.au/fwo/IDV60801/IDV60801.94874.json